Time;durP1;ratioP1;P1;durP2;ratioP2;P2;SDS_P1;SDS_P2;PMS_P1;PMS_P2;Temp;Humidity;BMP_temperature;BMP_pressure;BME280_temperature;BME280_humidity;BME280_pressure;Samples;Min_cycle;Max_cycle;Signal;HPM_P1;HPM_P2
2023/10/23 00:01:35;;;;;;;4.37;3.30;;;;;;;;;;5052892;28;20488;-60
2023/10/23 00:04:01;;;;;;;5.63;3.20;;;;;;;;;;5052621;28;20488;-60
2023/10/23 00:06:27;;;;;;;11.83;3.67;;;;;;;;;;5051373;28;20934;-60
2023/10/23 00:08:53;;;;;;;3.23;3.03;;;;;;;;;;5052456;28;20591;-60
2023/10/23 00:11:23;;;;;;;3.30;3.10;;;;;;;;;;5052405;28;20475;-60
2023/10/23 00:13:49;;;;;;;3.33;3.07;;;;;;;;;;5052354;28;20533;-60
2023/10/23 00:16:15;;;;;;;3.90;3.00;;;;;;;;;;5052353;28;20498;-60
2023/10/23 00:18:41;;;;;;;2.83;2.70;;;;;;;;;;5052387;28;20824;-60
2023/10/23 00:21:11;;;;;;;3.03;2.80;;;;;;;;;;5052331;28;20492;-60
2023/10/23 00:23:36;;;;;;;3.73;3.10;;;;;;;;;;5052541;28;20434;-60
2023/10/23 00:26:05;;;;;;;6.43;2.80;;;;;;;;;;5052461;28;20883;-60
2023/10/23 00:28:32;;;;;;;3.17;2.97;;;;;;;;;;5052233;28;20941;-60
2023/10/23 00:30:58;;;;;;;3.00;2.90;;;;;;;;;;5050945;28;20957;-60
2023/10/23 00:33:23;;;;;;;5.17;3.13;;;;;;;;;;5052322;28;20423;-60
2023/10/23 00:35:52;;;;;;;3.30;2.40;;;;;;;;;;5052430;28;20413;-60
2023/10/23 00:38:18;;;;;;;8.50;2.57;;;;;;;;;;5052149;28;20783;-60
2023/10/23 00:40:44;;;;;;;3.20;2.80;;;;;;;;;;5052166;28;20457;-60
2023/10/23 00:43:25;;;;;;;3.63;2.87;;;;;;;;;;5052214;28;20419;-60
2023/10/23 00:45:55;;;;;;;2.63;2.43;;;;;;;;;;5052133;28;20452;-60
2023/10/23 00:48:22;;;;;;;3.33;2.70;;;;;;;;;;5052299;28;20423;-60
2023/10/23 00:50:56;;;;;;;3.00;2.00;;;;;;;;;;5052241;28;20411;-60
2023/10/23 00:53:25;;;;;;;4.60;2.70;;;;;;;;;;5050792;28;20422;-60
2023/10/23 00:55:52;;;;;;;3.60;3.07;;;;;;;;;;5051892;28;20426;-60
2023/10/23 00:58:19;;;;;;;2.73;2.53;;;;;;;;;;5052128;28;20893;-60
2023/10/23 01:00:45;;;;;;;3.17;2.50;;;;;;;;;;5051885;28;20552;-60
2023/10/23 01:03:11;;;;;;;2.63;2.53;;;;;;;;;;5050887;28;20538;-60
2023/10/23 01:05:37;;;;;;;6.17;2.50;;;;;;;;;;5052175;28;20753;-60
2023/10/23 01:08:04;;;;;;;2.70;2.60;;;;;;;;;;5055359;28;20402;-60
2023/10/23 01:10:30;;;;;;;5.80;2.77;;;;;;;;;;5055818;28;20777;-60
2023/10/23 01:12:56;;;;;;;2.83;2.73;;;;;;;;;;5055998;28;20434;-60
2023/10/23 01:15:23;;;;;;;4.03;2.97;;;;;;;;;;5055634;28;20434;-60
2023/10/23 01:17:52;;;;;;;3.07;2.87;;;;;;;;;;5055629;28;20441;-60
2023/10/23 01:20:18;;;;;;;2.80;2.60;;;;;;;;;;5055452;28;20554;-60
2023/10/23 01:22:44;;;;;;;3.80;2.40;;;;;;;;;;5055568;28;20411;-60
2023/10/23 01:25:14;;;;;;;4.50;2.70;;;;;;;;;;5055454;28;20504;-60
2023/10/23 01:27:40;;;;;;;2.80;2.50;;;;;;;;;;5054534;28;20781;-60
2023/10/23 01:30:09;;;;;;;12.13;3.00;;;;;;;;;;5055699;28;20525;-60
2023/10/23 01:32:35;;;;;;;3.50;3.20;;;;;;;;;;5055710;28;20484;-60
2023/10/23 01:35:04;;;;;;;4.20;3.20;;;;;;;;;;5055440;28;20443;-59
2023/10/23 01:37:30;;;;;;;4.00;2.80;;;;;;;;;;5055379;28;20921;-60
2023/10/23 01:39:58;;;;;;;2.80;2.53;;;;;;;;;;5055463;28;20462;-60
2023/10/23 01:42:28;;;;;;;3.30;3.10;;;;;;;;;;5055738;28;20737;-60
2023/10/23 01:44:55;;;;;;;3.13;2.93;;;;;;;;;;5054025;28;20419;-60
2023/10/23 01:47:21;;;;;;;3.37;3.27;;;;;;;;;;5055207;28;20501;-60
2023/10/23 01:49:47;;;;;;;3.30;2.67;;;;;;;;;;5053929;28;20917;-60
2023/10/23 01:52:15;;;;;;;4.57;2.73;;;;;;;;;;5055139;28;20411;-60
2023/10/23 01:54:41;;;;;;;2.77;2.67;;;;;;;;;;5055162;28;20442;-60
2023/10/23 01:57:07;;;;;;;3.47;3.17;;;;;;;;;;5054925;28;20498;-60
2023/10/23 01:59:33;;;;;;;3.33;3.13;;;;;;;;;;5054582;28;20569;-60
2023/10/23 02:01:59;;;;;;;5.63;3.17;;;;;;;;;;5053577;28;20421;-60
2023/10/23 02:04:27;;;;;;;3.27;2.97;;;;;;;;;;5054689;28;20492;-60
2023/10/23 02:06:55;;;;;;;3.33;2.67;;;;;;;;;;5054560;28;20490;-60
2023/10/23 02:09:21;;;;;;;3.73;2.90;;;;;;;;;;5054544;28;20431;-60
2023/10/23 02:11:47;;;;;;;3.03;2.80;;;;;;;;;;5053448;28;20449;-60
2023/10/23 02:14:13;;;;;;;2.97;2.87;;;;;;;;;;5054403;28;20868;-60
2023/10/23 02:16:39;;;;;;;2.40;2.40;;;;;;;;;;5054572;28;20479;-60
2023/10/23 02:19:05;;;;;;;5.97;3.17;;;;;;;;;;5054040;28;20438;-60
2023/10/23 02:21:31;;;;;;;3.33;2.90;;;;;;;;;;5054450;28;20419;-60
2023/10/23 02:23:58;;;;;;;3.47;2.83;;;;;;;;;;5054099;28;20871;-60
2023/10/23 02:26:25;;;;;;;3.43;2.77;;;;;;;;;;5054358;28;20423;-60
2023/10/23 02:28:51;;;;;;;2.50;2.40;;;;;;;;;;5054094;28;20431;-60
2023/10/23 02:31:17;;;;;;;4.00;3.40;;;;;;;;;;5054187;28;20426;-60
2023/10/23 02:33:43;;;;;;;4.00;2.97;;;;;;;;;;5054161;28;20458;-60
2023/10/23 02:36:09;;;;;;;2.77;2.57;;;;;;;;;;5054048;28;20510;-60
2023/10/23 02:38:35;;;;;;;2.77;2.67;;;;;;;;;;5053989;28;20423;-60
2023/10/23 02:41:01;;;;;;;3.20;2.60;;;;;;;;;;5053889;28;20564;-60
2023/10/23 02:43:27;;;;;;;2.13;2.03;;;;;;;;;;5054041;28;20411;-60
2023/10/23 02:45:53;;;;;;;2.77;2.67;;;;;;;;;;5053773;28;20425;-60
2023/10/23 02:48:19;;;;;;;2.53;2.43;;;;;;;;;;5053681;28;20406;-60
2023/10/23 02:50:54;;;;;;;2.30;2.20;;;;;;;;;;5053581;28;20445;-60
2023/10/23 02:53:21;;;;;;;3.00;2.80;;;;;;;;;;5053678;28;20523;-60
2023/10/23 02:55:47;;;;;;;2.30;2.20;;;;;;;;;;5053935;28;20803;-60
2023/10/23 02:58:13;;;;;;;2.40;2.30;;;;;;;;;;5052313;28;20427;-60
2023/10/23 03:00:39;;;;;;;4.00;2.70;;;;;;;;;;5053434;28;20489;-60
2023/10/23 03:03:05;;;;;;;2.60;2.40;;;;;;;;;;5053525;28;20469;-59
2023/10/23 03:05:31;;;;;;;2.27;2.17;;;;;;;;;;5053476;28;20488;-60
2023/10/23 03:07:59;;;;;;;4.80;2.33;;;;;;;;;;5053444;28;20418;-60
2023/10/23 03:10:28;;;;;;;2.27;2.17;;;;;;;;;;5053365;28;20962;-60
2023/10/23 03:12:54;;;;;;;2.60;2.50;;;;;;;;;;5053301;28;20421;-60
2023/10/23 03:15:20;;;;;;;2.27;2.17;;;;;;;;;;5053313;28;20442;-60
2023/10/23 03:17:46;;;;;;;2.20;2.10;;;;;;;;;;5053285;28;20510;-60
2023/10/23 03:20:12;;;;;;;2.83;2.73;;;;;;;;;;5052859;28;20521;-60
2023/10/23 03:22:38;;;;;;;2.20;2.20;;;;;;;;;;5053257;28;20407;-60
2023/10/23 03:25:04;;;;;;;2.60;2.40;;;;;;;;;;5052988;28;20415;-60
2023/10/23 03:27:30;;;;;;;2.50;2.37;;;;;;;;;;5053131;28;20434;-60
2023/10/23 03:29:56;;;;;;;2.47;2.37;;;;;;;;;;5052413;28;20485;-60
2023/10/23 03:32:23;;;;;;;6.50;2.50;;;;;;;;;;5053047;28;20407;-60
2023/10/23 03:34:52;;;;;;;2.37;2.20;;;;;;;;;;5051644;28;20515;-60
2023/10/23 03:37:17;;;;;;;4.63;2.10;;;;;;;;;;5052625;28;20423;-60
2023/10/23 03:39:43;;;;;;;4.20;2.50;;;;;;;;;;5052856;28;20479;-60
2023/10/23 03:42:09;;;;;;;2.50;2.33;;;;;;;;;;5051565;28;20419;-60
2023/10/23 03:44:36;;;;;;;3.27;2.77;;;;;;;;;;5053076;28;20816;-61
2023/10/23 03:47:02;;;;;;;2.27;2.17;;;;;;;;;;5052751;28;20443;-61
2023/10/23 03:49:28;;;;;;;2.60;2.20;;;;;;;;;;5052976;28;20410;-60
2023/10/23 03:51:57;;;;;;;2.10;2.00;;;;;;;;;;5052731;28;20437;-61
2023/10/23 03:54:23;;;;;;;2.30;2.20;;;;;;;;;;5052480;28;20861;-61
2023/10/23 03:56:51;;;;;;;3.60;2.50;;;;;;;;;;5052453;28;20490;-60
2023/10/23 03:59:17;;;;;;;3.37;2.60;;;;;;;;;;5052478;28;20509;-61
2023/10/23 04:01:43;;;;;;;2.30;2.20;;;;;;;;;;5052510;28;20518;-61
2023/10/23 04:04:10;;;;;;;10.50;2.40;;;;;;;;;;5052639;28;20407;-60
2023/10/23 04:06:39;;;;;;;2.27;2.27;;;;;;;;;;5052278;28;20442;-60
2023/10/23 04:09:05;;;;;;;13.23;11.30;;;;;;;;;;5052548;28;20391;-60
2023/10/23 04:11:33;;;;;;;11.73;10.10;;;;;;;;;;5052273;28;20489;-61
2023/10/23 04:13:59;;;;;;;18.97;15.63;;;;;;;;;;5052551;28;20784;-60
2023/10/23 04:16:25;;;;;;;2.53;2.50;;;;;;;;;;5052282;28;20871;-61
2023/10/23 04:18:51;;;;;;;3.83;3.57;;;;;;;;;;5052673;28;20488;-61
2023/10/23 04:21:17;;;;;;;7.60;6.37;;;;;;;;;;5052150;28;20475;-60
2023/10/23 04:23:46;;;;;;;16.73;11.87;;;;;;;;;;5052201;28;20405;-61
2023/10/23 04:26:11;;;;;;;15.33;10.50;;;;;;;;;;5052333;28;20441;-61
2023/10/23 04:28:40;;;;;;;8.93;7.80;;;;;;;;;;5052222;28;20415;-61
2023/10/23 04:31:06;;;;;;;11.00;8.30;;;;;;;;;;5052196;28;20428;-60
2023/10/23 04:33:32;;;;;;;10.97;8.90;;;;;;;;;;5052145;28;20415;-60
2023/10/23 04:35:59;;;;;;;14.70;8.97;;;;;;;;;;5050771;28;20937;-60
2023/10/23 04:38:25;;;;;;;19.80;12.00;;;;;;;;;;5052082;28;20431;-61
2023/10/23 04:40:53;;;;;;;26.70;13.10;;;;;;;;;;5052157;28;20470;-61
2023/10/23 04:43:19;;;;;;;18.70;10.90;;;;;;;;;;5056248;28;20395;-60
2023/10/23 04:45:45;;;;;;;24.00;10.20;;;;;;;;;;5056220;28;20782;-60
2023/10/23 04:48:13;;;;;;;57.17;35.63;;;;;;;;;;5056277;28;20782;-61
2023/10/23 04:50:40;;;;;;;53.60;33.70;;;;;;;;;;5055990;28;20430;-61
2023/10/23 04:53:06;;;;;;;14.10;9.80;;;;;;;;;;5055973;28;20422;-61
2023/10/23 04:55:38;;;;;;;8.73;7.10;;;;;;;;;;5055783;28;20525;-61
2023/10/23 04:58:05;;;;;;;5.97;5.03;;;;;;;;;;5055967;28;20448;-61
2023/10/23 05:00:34;;;;;;;13.97;5.83;;;;;;;;;;5055719;28;20477;-60
2023/10/23 05:03:00;;;;;;;6.83;5.73;;;;;;;;;;5055946;28;20486;-61
2023/10/23 05:05:26;;;;;;;7.93;5.77;;;;;;;;;;5055617;28;20576;-60
2023/10/23 05:07:52;;;;;;;8.03;6.00;;;;;;;;;;5054507;28;20422;-61
2023/10/23 05:10:18;;;;;;;8.10;5.83;;;;;;;;;;5054327;28;20925;-60
2023/10/23 05:12:45;;;;;;;11.47;10.33;;;;;;;;;;5054400;28;20446;-61
2023/10/23 05:15:11;;;;;;;10.60;8.07;;;;;;;;;;5054337;28;20848;-60
2023/10/23 05:17:37;;;;;;;39.03;20.33;;;;;;;;;;5055574;28;20426;-61
2023/10/23 05:20:04;;;;;;;48.13;26.23;;;;;;;;;;5055455;28;20845;-61
2023/10/23 05:22:32;;;;;;;47.93;29.70;;;;;;;;;;5055451;28;20417;-61
2023/10/23 05:24:58;;;;;;;119.77;60.73;;;;;;;;;;5055260;28;20864;-61
2023/10/23 05:27:24;;;;;;;76.47;42.57;;;;;;;;;;5055268;28;20897;-61
2023/10/23 05:29:52;;;;;;;18.43;13.23;;;;;;;;;;5055242;28;20483;-61
2023/10/23 05:32:18;;;;;;;8.03;4.07;;;;;;;;;;5055239;28;20421;-60
2023/10/23 05:34:44;;;;;;;7.17;5.47;;;;;;;;;;5055087;28;20811;-60
2023/10/23 05:37:11;;;;;;;5.30;4.80;;;;;;;;;;5055240;28;20919;-61
2023/10/23 05:39:36;;;;;;;11.30;5.40;;;;;;;;;;5054954;28;20811;-60
2023/10/23 05:42:05;;;;;;;8.40;4.90;;;;;;;;;;5054981;28;20433;-61
2023/10/23 05:44:31;;;;;;;5.43;4.90;;;;;;;;;;5054831;28;20427;-61
2023/10/23 05:46:57;;;;;;;5.63;4.20;;;;;;;;;;5054875;28;20517;-60
2023/10/23 05:49:23;;;;;;;4.60;4.20;;;;;;;;;;5054983;28;20403;-60
2023/10/23 05:51:52;;;;;;;8.07;4.10;;;;;;;;;;5054232;28;20409;-61
2023/10/23 05:54:18;;;;;;;5.50;4.13;;;;;;;;;;5054894;28;20464;-61
2023/10/23 05:56:46;;;;;;;4.83;3.70;;;;;;;;;;5054156;28;20835;-60
2023/10/23 05:59:12;;;;;;;4.00;2.73;;;;;;;;;;5054813;28;20425;-61
2023/10/23 06:01:38;;;;;;;5.53;3.00;;;;;;;;;;5054523;28;20398;-60
2023/10/23 06:04:04;;;;;;;4.90;3.33;;;;;;;;;;5054638;28;20395;-60
2023/10/23 06:06:31;;;;;;;3.23;2.93;;;;;;;;;;5054496;28;20422;-60
2023/10/23 06:08:57;;;;;;;3.40;3.10;;;;;;;;;;5054451;28;20410;-61
2023/10/23 06:11:25;;;;;;;24.87;12.93;;;;;;;;;;5054610;28;20438;-60
2023/10/23 06:13:51;;;;;;;8.50;3.50;;;;;;;;;;5054545;28;20419;-61
2023/10/23 06:16:17;;;;;;;2.63;2.63;;;;;;;;;;5054401;28;20426;-60
2023/10/23 06:18:46;;;;;;;34.07;18.27;;;;;;;;;;5054521;28;20963;-61
2023/10/23 06:21:14;;;;;;;66.13;32.33;;;;;;;;;;5054042;28;20478;-61
2023/10/23 06:23:43;;;;;;;21.13;13.00;;;;;;;;;;5054717;28;20415;-61
2023/10/23 06:26:09;;;;;;;3.10;2.90;;;;;;;;;;5054371;28;20439;-60
2023/10/23 06:28:36;;;;;;;2.47;2.30;;;;;;;;;;5054159;28;20407;-60
2023/10/23 06:31:11;;;;;;;3.20;2.90;;;;;;;;;;5054321;28;20426;-60
2023/10/23 06:33:42;;;;;;;3.03;2.80;;;;;;;;;;5052892;28;20418;-60
2023/10/23 06:36:09;;;;;;;3.47;3.23;;;;;;;;;;5054127;28;20438;-60
2023/10/23 06:38:35;;;;;;;8.60;4.70;;;;;;;;;;5054019;28;20431;-60
2023/10/23 06:41:07;;;;;;;7.80;5.50;;;;;;;;;;5053887;28;20463;-60
2023/10/23 06:43:33;;;;;;;7.60;6.23;;;;;;;;;;5054116;28;20399;-60
2023/10/23 06:45:59;;;;;;;7.37;6.77;;;;;;;;;;5053808;28;20426;-60
2023/10/23 06:48:25;;;;;;;5.63;5.20;;;;;;;;;;5052605;28;20403;-60
2023/10/23 06:50:51;;;;;;;5.60;5.00;;;;;;;;;;5052546;28;20473;-61
2023/10/23 06:53:17;;;;;;;5.13;4.17;;;;;;;;;;5053880;28;20414;-60
2023/10/23 06:55:50;;;;;;;3.53;3.43;;;;;;;;;;5053681;28;20426;-61
2023/10/23 06:58:16;;;;;;;3.43;3.23;;;;;;;;;;5053747;28;20422;-60
2023/10/23 07:00:42;;;;;;;12.50;3.40;;;;;;;;;;5053729;28;20470;-61
2023/10/23 07:03:08;;;;;;;7.90;3.40;;;;;;;;;;5053484;28;20914;-61
2023/10/23 07:05:34;;;;;;;12.70;3.40;;;;;;;;;;5052933;28;20403;-61
2023/10/23 07:08:03;;;;;;;4.20;3.80;;;;;;;;;;5053535;28;20410;-61
2023/10/23 07:10:31;;;;;;;3.73;3.27;;;;;;;;;;5053628;28;20469;-62
2023/10/23 07:12:59;;;;;;;10.73;5.47;;;;;;;;;;5053110;28;20443;-61
2023/10/23 07:15:25;;;;;;;4.97;3.90;;;;;;;;;;5051995;28;20516;-61
2023/10/23 07:17:51;;;;;;;13.73;6.80;;;;;;;;;;5053160;28;20473;-62
2023/10/23 07:20:17;;;;;;;21.93;12.27;;;;;;;;;;5051693;28;20478;-61
2023/10/23 07:22:46;;;;;;;14.70;8.50;;;;;;;;;;5053124;28;20426;-61
2023/10/23 07:25:12;;;;;;;4.70;3.40;;;;;;;;;;5053263;28;20414;-61
2023/10/23 07:27:41;;;;;;;3.57;3.33;;;;;;;;;;5053072;28;20407;-61
2023/10/23 07:30:07;;;;;;;4.10;3.77;;;;;;;;;;5052792;28;20449;-61
2023/10/23 07:32:36;;;;;;;4.07;3.77;;;;;;;;;;5052937;28;20411;-61
2023/10/23 07:35:05;;;;;;;4.50;3.70;;;;;;;;;;5051412;28;20968;-61
2023/10/23 07:37:32;;;;;;;4.00;3.13;;;;;;;;;;5053173;28;20446;-61
2023/10/23 07:40:01;;;;;;;7.20;3.70;;;;;;;;;;5052734;28;20466;-61
2023/10/23 07:42:27;;;;;;;4.63;3.10;;;;;;;;;;5052520;28;20410;-61
2023/10/23 07:44:53;;;;;;;3.47;3.30;;;;;;;;;;5053013;28;20763;-61
2023/10/23 07:47:21;;;;;;;6.07;4.40;;;;;;;;;;5052545;28;20414;-61
2023/10/23 07:49:47;;;;;;;4.23;3.90;;;;;;;;;;5052634;28;20549;-61
2023/10/23 07:52:13;;;;;;;9.33;3.70;;;;;;;;;;5051415;28;20497;-61
2023/10/23 07:54:39;;;;;;;8.60;4.03;;;;;;;;;;5051181;28;20934;-61
2023/10/23 07:57:05;;;;;;;7.23;4.27;;;;;;;;;;5052793;28;20415;-61
2023/10/23 07:59:33;;;;;;;9.80;4.80;;;;;;;;;;5051077;28;20421;-61
2023/10/23 08:01:59;;;;;;;6.23;4.50;;;;;;;;;;5052577;28;20435;-61
2023/10/23 08:04:25;;;;;;;8.70;4.00;;;;;;;;;;5052666;28;20429;-61
2023/10/23 08:06:51;;;;;;;7.23;4.90;;;;;;;;;;5052612;28;20433;-61
2023/10/23 08:09:20;;;;;;;6.83;3.90;;;;;;;;;;5052375;28;20414;-61
2023/10/23 08:11:46;;;;;;;5.27;4.37;;;;;;;;;;5052517;28;20423;-61
2023/10/23 08:14:12;;;;;;;7.57;3.87;;;;;;;;;;5052159;28;20426;-61
2023/10/23 08:16:40;;;;;;;4.40;3.97;;;;;;;;;;5051966;28;20415;-61
2023/10/23 08:19:06;;;;;;;6.07;4.33;;;;;;;;;;5052488;28;20461;-61
2023/10/23 08:21:32;;;;;;;8.70;4.00;;;;;;;;;;5052334;28;20538;-61
2023/10/23 08:23:59;;;;;;;10.13;4.37;;;;;;;;;;5050850;28;20426;-61
2023/10/23 08:26:24;;;;;;;3.57;3.37;;;;;;;;;;5052016;28;20426;-61
2023/10/23 08:28:51;;;;;;;9.07;3.80;;;;;;;;;;5050819;28;20917;-61
2023/10/23 08:31:17;;;;;;;4.23;4.00;;;;;;;;;;5052176;28;20600;-61
2023/10/23 08:33:43;;;;;;;4.20;4.00;;;;;;;;;;5052398;28;20443;-61
2023/10/23 08:36:09;;;;;;;5.23;4.67;;;;;;;;;;5052266;28;20889;-61
2023/10/23 08:38:38;;;;;;;4.67;4.27;;;;;;;;;;5052143;28;20445;-61
2023/10/23 08:41:04;;;;;;;4.77;4.37;;;;;;;;;;5052197;28;20467;-61
2023/10/23 08:43:31;;;;;;;14.10;5.33;;;;;;;;;;5052192;28;20427;-61
2023/10/23 08:46:02;;;;;;;5.60;5.17;;;;;;;;;;5050885;28;20484;-61
2023/10/23 08:48:30;;;;;;;9.33;5.20;;;;;;;;;;5052189;28;20455;-61
2023/10/23 08:50:57;;;;;;;7.37;4.93;;;;;;;;;;5052125;28;20419;-61
2023/10/23 08:53:30;;;;;;;6.03;4.73;;;;;;;;;;5051643;28;20434;-61
2023/10/23 08:55:56;;;;;;;6.40;5.13;;;;;;;;;;5051801;28;20414;-61
2023/10/23 08:58:22;;;;;;;7.60;4.63;;;;;;;;;;5051853;28;20777;-61
2023/10/23 09:00:56;;;;;;;5.50;4.50;;;;;;;;;;5051930;28;20462;-61
2023/10/23 09:03:23;;;;;;;6.93;5.70;;;;;;;;;;5052002;28;20462;-61
2023/10/23 09:05:49;;;;;;;14.97;4.77;;;;;;;;;;5052022;28;20419;-61
2023/10/23 09:08:18;;;;;;;4.90;4.60;;;;;;;;;;5051494;28;20415;-61
2023/10/23 09:11:03;;;;;;;5.17;4.30;;;;;;;;;;5050372;28;20502;-61
2023/10/23 09:13:37;;;;;;;5.87;5.03;;;;;;;;;;5051528;28;20411;-61
2023/10/23 09:16:04;;;;;;;6.87;5.90;;;;;;;;;;5051823;28;20783;-61
2023/10/23 09:18:30;;;;;;;4.87;4.50;;;;;;;;;;5051823;28;20514;-61
2023/10/23 09:20:57;;;;;;;8.50;4.70;;;;;;;;;;5051355;28;20585;-62
2023/10/23 09:23:23;;;;;;;11.63;5.20;;;;;;;;;;5051444;28;20418;-61
2023/10/23 09:25:52;;;;;;;8.57;5.07;;;;;;;;;;5051736;28;20418;-61
2023/10/23 09:28:18;;;;;;;4.53;4.17;;;;;;;;;;5053877;28;20415;-61
2023/10/23 09:30:46;;;;;;;5.10;4.07;;;;;;;;;;5055154;28;20411;-61
2023/10/23 09:33:14;;;;;;;6.83;3.90;;;;;;;;;;5055389;28;20792;-61
2023/10/23 09:35:40;;;;;;;11.33;4.97;;;;;;;;;;5055465;28;20423;-61
2023/10/23 09:38:13;;;;;;;10.20;4.20;;;;;;;;;;5055153;28;20802;-61
2023/10/23 09:40:39;;;;;;;7.73;4.60;;;;;;;;;;5054817;28;20838;-61
2023/10/23 09:43:07;;;;;;;4.40;4.00;;;;;;;;;;5055023;28;20439;-61
2023/10/23 09:45:33;;;;;;;4.67;4.37;;;;;;;;;;5055244;28;20402;-62
2023/10/23 09:48:00;;;;;;;8.10;4.53;;;;;;;;;;5055146;28;20473;-61
2023/10/23 09:50:29;;;;;;;4.60;4.17;;;;;;;;;;5055066;28;20878;-61
2023/10/23 09:52:57;;;;;;;5.03;4.57;;;;;;;;;;5054734;28;20984;-61
2023/10/23 09:55:28;;;;;;;5.03;4.63;;;;;;;;;;5054605;28;20859;-61
2023/10/23 09:58:00;;;;;;;6.33;5.27;;;;;;;;;;5054874;28;20418;-61
2023/10/23 10:00:27;;;;;;;6.03;5.20;;;;;;;;;;5054543;28;20528;-61
2023/10/23 10:02:54;;;;;;;6.10;5.07;;;;;;;;;;5054670;28;20466;-62
2023/10/23 10:05:24;;;;;;;6.53;5.07;;;;;;;;;;5054570;28;20407;-61
2023/10/23 10:07:50;;;;;;;8.97;5.97;;;;;;;;;;5054371;28;20415;-61
2023/10/23 10:10:19;;;;;;;9.23;5.93;;;;;;;;;;5053301;28;20526;-61
2023/10/23 10:12:46;;;;;;;14.07;5.20;;;;;;;;;;5054361;28;20429;-62
2023/10/23 10:15:13;;;;;;;10.83;5.53;;;;;;;;;;5054430;28;20418;-61
2023/10/23 10:17:45;;;;;;;11.07;6.10;;;;;;;;;;5054275;28;20928;-62
2023/10/23 10:20:11;;;;;;;6.20;5.60;;;;;;;;;;5054427;28;20474;-62
2023/10/23 10:22:41;;;;;;;8.03;5.33;;;;;;;;;;5054526;28;20411;-62
2023/10/23 10:25:09;;;;;;;7.83;5.57;;;;;;;;;;5054298;28;20493;-61
2023/10/23 10:27:35;;;;;;;7.13;5.40;;;;;;;;;;5054093;28;20800;-61
2023/10/23 10:30:09;;;;;;;6.60;6.00;;;;;;;;;;5054443;28;20425;-61
2023/10/23 10:32:39;;;;;;;11.10;6.10;;;;;;;;;;5054061;28;20433;-61
2023/10/23 10:35:25;;;;;;;9.07;6.30;;;;;;;;;;5052906;28;20845;-62
2023/10/23 10:37:53;;;;;;;6.90;6.00;;;;;;;;;;5052689;28;20435;-61
2023/10/23 10:40:21;;;;;;;8.23;6.17;;;;;;;;;;5053514;28;20462;-61
2023/10/23 10:42:50;;;;;;;7.60;6.63;;;;;;;;;;5053777;28;20815;-61
2023/10/23 10:45:17;;;;;;;7.90;6.10;;;;;;;;;;5053723;28;20429;-61
2023/10/23 10:47:53;;;;;;;13.13;6.73;;;;;;;;;;5053816;28;20410;-61
2023/10/23 10:50:33;;;;;;;7.13;6.43;;;;;;;;;;5052611;28;20456;-61
2023/10/23 10:53:02;;;;;;;9.10;6.50;;;;;;;;;;5053622;28;20460;-61
2023/10/23 10:55:29;;;;;;;7.20;6.50;;;;;;;;;;5053709;28;20894;-61
2023/10/23 10:57:57;;;;;;;8.07;5.90;;;;;;;;;;5053654;28;20419;-61
2023/10/23 11:00:24;;;;;;;7.30;6.17;;;;;;;;;;5053539;28;20839;-61
2023/10/23 11:02:49;;;;;;;12.73;7.07;;;;;;;;;;5053736;28;20399;-61
2023/10/23 11:05:18;;;;;;;7.00;6.30;;;;;;;;;;5053765;28;20406;-61
2023/10/23 11:07:46;;;;;;;70.37;40.77;;;;;;;;;;5052209;28;20430;-61
2023/10/23 11:10:12;;;;;;;64.53;36.83;;;;;;;;;;5053422;28;20991;-61
2023/10/23 11:12:39;;;;;;;18.73;13.97;;;;;;;;;;5052095;28;20922;-61
2023/10/23 11:15:05;;;;;;;39.17;20.57;;;;;;;;;;5053170;28;20422;-61
2023/10/23 11:17:31;;;;;;;45.33;22.83;;;;;;;;;;5053010;28;20422;-62
2023/10/23 11:20:03;;;;;;;13.53;8.50;;;;;;;;;;5053154;28;20548;-62
2023/10/23 11:22:29;;;;;;;17.20;9.40;;;;;;;;;;5052979;28;20417;-61
2023/10/23 11:24:55;;;;;;;11.60;9.00;;;;;;;;;;5052717;28;20419;-61
2023/10/23 11:27:21;;;;;;;16.83;8.80;;;;;;;;;;5052971;28;20778;-62
2023/10/23 11:29:48;;;;;;;10.23;8.90;;;;;;;;;;5052795;28;20498;-62
2023/10/23 11:32:15;;;;;;;13.73;8.97;;;;;;;;;;5051779;28;20414;-62
2023/10/23 11:34:44;;;;;;;8.80;7.07;;;;;;;;;;5052675;28;20427;-62
2023/10/23 11:37:11;;;;;;;25.03;16.40;;;;;;;;;;5052845;28;20411;-62
2023/10/23 11:39:37;;;;;;;17.33;12.37;;;;;;;;;;5052756;28;20485;-62
2023/10/23 11:42:04;;;;;;;26.40;14.17;;;;;;;;;;5053103;28;20403;-61
2023/10/23 11:44:30;;;;;;;16.83;11.23;;;;;;;;;;5053042;28;20425;-62
2023/10/23 11:47:00;;;;;;;6.90;6.30;;;;;;;;;;5053100;28;20478;-61
2023/10/23 11:49:26;;;;;;;6.93;5.87;;;;;;;;;;5052563;28;20513;-62
2023/10/23 11:51:52;;;;;;;12.73;6.90;;;;;;;;;;5052537;28;20890;-62
2023/10/23 11:54:20;;;;;;;6.73;6.13;;;;;;;;;;5052988;28;20435;-62
2023/10/23 11:56:47;;;;;;;8.53;6.83;;;;;;;;;;5051981;28;20493;-62
2023/10/23 11:59:16;;;;;;;10.70;8.10;;;;;;;;;;5052494;28;20484;-62
2023/10/23 12:01:42;;;;;;;12.30;6.63;;;;;;;;;;5052509;28;20494;-62
2023/10/23 12:04:10;;;;;;;8.03;6.70;;;;;;;;;;5052470;28;20501;-62
2023/10/23 12:06:37;;;;;;;11.03;5.33;;;;;;;;;;5051424;28;20427;-62
2023/10/23 12:09:04;;;;;;;6.73;5.30;;;;;;;;;;5052304;28;20415;-62
2023/10/23 12:11:30;;;;;;;7.67;5.37;;;;;;;;;;5052805;28;20419;-62
2023/10/23 12:13:57;;;;;;;6.10;4.10;;;;;;;;;;5052423;28;20462;-62
2023/10/23 12:16:23;;;;;;;5.43;5.03;;;;;;;;;;5052349;28;20988;-62
2023/10/23 12:18:49;;;;;;;4.80;4.50;;;;;;;;;;5052423;28;20411;-61
2023/10/23 12:21:15;;;;;;;7.00;4.37;;;;;;;;;;5052263;28;20494;-62
2023/10/23 12:23:41;;;;;;;6.37;4.63;;;;;;;;;;5052223;28;20921;-62
2023/10/23 12:26:07;;;;;;;9.77;5.00;;;;;;;;;;5052181;28;20487;-62
2023/10/23 12:28:34;;;;;;;8.63;3.97;;;;;;;;;;5052436;28;20501;-62
2023/10/23 12:31:00;;;;;;;5.67;3.77;;;;;;;;;;5051970;28;20431;-62
2023/10/23 12:33:26;;;;;;;11.47;5.03;;;;;;;;;;5050986;28;20458;-61
2023/10/23 12:35:52;;;;;;;8.73;5.37;;;;;;;;;;5051972;28;20418;-61
2023/10/23 12:38:18;;;;;;;10.27;7.70;;;;;;;;;;5052316;28;20415;-61
2023/10/23 12:40:46;;;;;;;10.13;5.87;;;;;;;;;;5050935;28;20459;-62
2023/10/23 12:43:14;;;;;;;6.93;5.30;;;;;;;;;;5052438;28;20415;-61
2023/10/23 12:45:42;;;;;;;13.80;9.87;;;;;;;;;;5052059;28;20403;-61
2023/10/23 12:48:10;;;;;;;5.30;4.57;;;;;;;;;;5052428;28;20510;-61
2023/10/23 12:50:36;;;;;;;6.57;4.20;;;;;;;;;;5052126;28;20945;-62
2023/10/23 12:53:02;;;;;;;7.00;5.50;;;;;;;;;;5052007;28;20423;-61
2023/10/23 12:55:28;;;;;;;7.20;5.60;;;;;;;;;;5051969;28;20484;-62
2023/10/23 12:57:54;;;;;;;6.70;5.57;;;;;;;;;;5051898;28;20415;-61
2023/10/23 13:00:20;;;;;;;8.70;5.60;;;;;;;;;;5051690;28;20462;-62
2023/10/23 13:02:46;;;;;;;5.13;4.60;;;;;;;;;;5052265;28;20834;-61
2023/10/23 13:05:12;;;;;;;5.27;4.87;;;;;;;;;;5055621;28;20454;-62
2023/10/23 13:07:38;;;;;;;7.77;5.70;;;;;;;;;;5055664;28;20411;-62
2023/10/23 13:10:04;;;;;;;7.50;7.00;;;;;;;;;;5055784;28;20442;-61
2023/10/23 13:12:30;;;;;;;6.23;5.63;;;;;;;;;;5055874;28;20831;-62
2023/10/23 13:14:59;;;;;;;6.10;5.43;;;;;;;;;;5055245;28;20435;-62
2023/10/23 13:17:25;;;;;;;6.47;5.80;;;;;;;;;;5055930;28;20418;-62
2023/10/23 13:19:52;;;;;;;6.63;5.60;;;;;;;;;;5055271;28;20462;-62
2023/10/23 13:22:21;;;;;;;6.00;5.50;;;;;;;;;;5054275;28;21009;-62
2023/10/23 13:24:47;;;;;;;5.90;5.27;;;;;;;;;;5055288;28;20443;-61
2023/10/23 13:27:15;;;;;;;5.40;4.40;;;;;;;;;;5055115;28;20505;-62
2023/10/23 13:29:43;;;;;;;4.67;4.43;;;;;;;;;;5055339;28;20448;-62
2023/10/23 13:32:09;;;;;;;4.80;4.40;;;;;;;;;;5054918;28;20429;-62
2023/10/23 13:34:35;;;;;;;5.33;4.20;;;;;;;;;;5055198;28;20417;-62
2023/10/23 13:37:01;;;;;;;5.20;4.40;;;;;;;;;;5055397;28;20413;-62
2023/10/23 13:39:27;;;;;;;4.60;4.20;;;;;;;;;;5055143;28;20821;-62
2023/10/23 13:41:53;;;;;;;5.67;4.57;;;;;;;;;;5055033;28;20495;-62
2023/10/23 13:44:22;;;;;;;8.07;4.60;;;;;;;;;;5055095;28;20484;-62
2023/10/23 13:46:48;;;;;;;4.80;4.50;;;;;;;;;;5055196;28;20782;-61
2023/10/23 13:49:13;;;;;;;5.40;4.90;;;;;;;;;;5054914;28;20405;-62
2023/10/23 13:51:42;;;;;;;6.70;5.97;;;;;;;;;;5054873;28;20438;-62
2023/10/23 13:54:08;;;;;;;7.20;5.40;;;;;;;;;;5054838;28;20476;-62
2023/10/23 13:56:34;;;;;;;5.97;5.40;;;;;;;;;;5055152;28;20439;-62
2023/10/23 13:59:00;;;;;;;6.73;6.03;;;;;;;;;;5054792;28;20451;-62
2023/10/23 14:01:28;;;;;;;6.77;5.00;;;;;;;;;;5054777;28;20468;-62
2023/10/23 14:03:54;;;;;;;5.20;4.90;;;;;;;;;;5054915;28;20909;-62
2023/10/23 14:06:22;;;;;;;6.40;5.60;;;;;;;;;;5054630;28;20440;-62
2023/10/23 14:08:48;;;;;;;6.33;5.70;;;;;;;;;;5054730;28;20407;-61
2023/10/23 14:11:14;;;;;;;9.13;8.27;;;;;;;;;;5054368;28;20925;-62
2023/10/23 14:13:40;;;;;;;7.07;6.60;;;;;;;;;;5054446;28;20392;-62
2023/10/23 14:16:06;;;;;;;8.37;5.60;;;;;;;;;;5054266;28;20435;-62
2023/10/23 14:18:32;;;;;;;7.57;6.00;;;;;;;;;;5054635;28;20416;-62
2023/10/23 14:20:58;;;;;;;15.87;6.83;;;;;;;;;;5054639;28;20483;-62
2023/10/23 14:23:24;;;;;;;8.83;5.73;;;;;;;;;;5054342;28;20412;-62
2023/10/23 14:25:54;;;;;;;6.20;5.70;;;;;;;;;;5054177;28;20835;-62
2023/10/23 14:28:20;;;;;;;6.23;5.63;;;;;;;;;;5054294;28;20439;-62
2023/10/23 14:30:46;;;;;;;7.00;6.10;;;;;;;;;;5053067;28;20474;-62
2023/10/23 14:33:12;;;;;;;6.73;6.20;;;;;;;;;;5054070;28;20855;-62
2023/10/23 14:35:38;;;;;;;6.80;6.30;;;;;;;;;;5053991;28;20425;-62
2023/10/23 14:38:04;;;;;;;10.70;6.43;;;;;;;;;;5054036;28;20438;-62